Oakham, Massachusetts
Current Conditions -  °F | °C
As of 5:54 PM on Sunday 21 Dec 2014 (Local Time) from KORH Reporting Station
Overcast Overcast  
Wind Chill: 23°   Ceiling: 800
Heat Index: 30°   Visibility: 10mi
Dew Point: 27°   Wind: 7mph
Humidity: 88%   Direction: 40°NE
Pressure: 30.29"   Gusts: NA
Location:  42.35°N, 72.05°W
Report Text: KORH 212254Z 04006KT 10SM OVC008 M01/M03 A3029 RMK AO2 SLP271 T10111028
Loading
Personal Weather Stations






























Interactive Weather Map New forecast layout! Learn more

10-Day Weather Forecast

Advertisements
Track Severe Weather on mobile